createdAt,value
2019-05-03T00:02:38.723Z,10.50
2019-05-03T00:05:26.557Z,10.50
2019-05-03T00:08:02.254Z,10.40
2019-05-03T00:10:31.774Z,10.40
2019-05-03T00:13:01.892Z,10.40
2019-05-03T00:15:42.817Z,10.40
2019-05-03T00:18:11.968Z,10.40
2019-05-03T00:20:42.264Z,10.50
2019-05-03T00:23:12.813Z,10.50
2019-05-03T00:25:41.813Z,10.50
2019-05-03T00:28:10.828Z,10.50
2019-05-03T00:30:39.454Z,10.50
2019-05-03T00:33:08.783Z,10.50
2019-05-03T00:35:55.715Z,10.50
2019-05-03T00:38:24.345Z,10.40
2019-05-03T00:40:52.989Z,10.40
2019-05-03T00:43:22.278Z,10.40
2019-05-03T00:45:51.695Z,10.40
2019-05-03T00:48:21.982Z,10.30
2019-05-03T00:50:51.774Z,10.40
2019-05-03T00:53:22.227Z,10.40
2019-05-03T00:55:52.475Z,10.30
2019-05-03T00:58:22.384Z,10.30
2019-05-03T01:00:52.465Z,10.30
2019-05-03T01:03:21.909Z,10.30
2019-05-03T01:05:52.935Z,10.20
2019-05-03T01:08:22.188Z,10.30
2019-05-03T01:10:51.668Z,10.40
2019-05-03T01:13:21.960Z,10.50
2019-05-03T01:16:05.680Z,10.50
2019-05-03T01:18:34.565Z,10.50
2019-05-03T01:21:04.821Z,10.60
2019-05-03T01:23:35.379Z,10.50
2019-05-03T01:26:04.324Z,10.60
2019-05-03T01:28:33.018Z,10.50
2019-05-03T01:31:02.657Z,10.50
2019-05-03T01:33:32.145Z,10.40
2019-05-03T01:36:02.934Z,10.50
2019-05-03T01:38:32.019Z,10.50
2019-05-03T01:41:01.726Z,10.50
2019-05-03T01:43:31.783Z,10.50
2019-05-03T01:46:02.754Z,10.50
2019-05-03T01:49:08.347Z,10.50
2019-05-03T01:52:05.303Z,10.50
2019-05-03T01:54:34.255Z,10.50
2019-05-03T01:57:03.435Z,10.60
2019-05-03T01:59:32.244Z,10.60
2019-05-03T02:02:20.443Z,10.70
2019-05-03T02:05:08.860Z,10.80
2019-05-03T02:07:37.588Z,10.80
2019-05-03T02:10:06.592Z,10.90
2019-05-03T02:12:35.315Z,10.90
2019-05-03T02:15:04.925Z,11.00
2019-05-03T02:17:33.587Z,11.00
2019-05-03T02:20:02.521Z,11.00
2019-05-03T02:22:32.786Z,11.00
2019-05-03T02:25:04.785Z,11.00
2019-05-03T02:27:33.236Z,11.00
2019-05-03T02:30:03.015Z,11.10
2019-05-03T02:32:33.191Z,11.00
2019-05-03T02:35:02.835Z,11.00
2019-05-03T02:37:33.031Z,11.00
2019-05-03T02:40:04.168Z,10.90
2019-05-03T02:42:35.604Z,10.90
2019-05-03T02:45:06.065Z,11.00
2019-05-03T02:47:55.433Z,11.00
2019-05-03T02:50:26.036Z,11.00
2019-05-03T02:52:55.305Z,10.90
2019-05-03T02:55:27.826Z,10.90
2019-05-03T02:57:56.873Z,10.90
2019-05-03T03:00:56.105Z,10.90
2019-05-03T03:03:25.906Z,11.00
2019-05-03T03:05:57.253Z,11.00
2019-05-03T03:08:32.998Z,11.00
2019-05-03T03:11:02.455Z,11.00
2019-05-03T03:13:31.850Z,11.00
2019-05-03T03:16:06.814Z,11.10
2019-05-03T03:18:37.521Z,11.00
2019-05-03T03:21:11.888Z,11.10
2019-05-03T03:24:12.730Z,11.20
2019-05-03T03:26:46.891Z,11.20
2019-05-03T03:29:16.323Z,11.20
2019-05-03T03:32:19.206Z,11.20
2019-05-03T03:35:12.117Z,11.20
2019-05-03T03:37:40.413Z,11.20
2019-05-03T03:40:09.145Z,11.20
2019-05-03T03:42:41.366Z,11.10
2019-05-03T03:45:10.372Z,11.10
2019-05-03T03:47:39.394Z,11.10
2019-05-03T03:50:09.057Z,11.10
2019-05-03T03:52:40.585Z,11.00
2019-05-03T03:55:10.010Z,11.10
2019-05-03T03:57:39.172Z,11.00
2019-05-03T04:00:09.127Z,11.00
2019-05-03T04:02:39.170Z,11.10
2019-05-03T04:05:08.146Z,11.00
2019-05-03T04:07:37.467Z,11.10
2019-05-03T04:10:07.411Z,11.00
2019-05-03T04:12:37.085Z,11.00
2019-05-03T04:15:28.682Z,11.00
2019-05-03T04:18:26.062Z,11.10
2019-05-03T04:20:55.940Z,11.10
2019-05-03T04:23:26.428Z,11.00
2019-05-03T04:25:56.679Z,11.00
2019-05-03T04:28:27.686Z,11.00
2019-05-03T04:30:56.604Z,10.90
2019-05-03T04:33:26.960Z,10.80
2019-05-03T04:35:55.874Z,10.80
2019-05-03T04:38:25.564Z,10.80
2019-05-03T04:40:56.116Z,10.80
2019-05-03T04:43:26.460Z,10.80
2019-05-03T04:46:06.873Z,10.60
2019-05-03T04:48:35.975Z,10.50
2019-05-03T04:51:05.873Z,10.40
2019-05-03T04:53:36.626Z,10.20
2019-05-03T04:56:05.724Z,10.30
2019-05-03T04:58:36.485Z,10.30
2019-05-03T05:01:06.536Z,10.30
2019-05-03T05:03:36.138Z,10.40
2019-05-03T05:06:06.248Z,10.40
2019-05-03T05:08:35.844Z,10.40
2019-05-03T05:11:05.863Z,10.40
2019-05-03T05:13:35.744Z,10.40
2019-05-03T05:16:05.907Z,10.40
2019-05-03T05:18:40.451Z,10.30
2019-05-03T05:21:14.994Z,10.40
2019-05-03T05:24:01.236Z,10.30
2019-05-03T05:26:39.281Z,10.30
2019-05-03T05:29:12.155Z,10.30
2019-05-03T05:31:41.025Z,10.30
2019-05-03T05:34:10.061Z,10.30
2019-05-03T05:36:38.747Z,10.30
2019-05-03T05:39:07.950Z,10.20
2019-05-03T05:41:36.613Z,10.30
2019-05-03T05:44:05.480Z,10.30
2019-05-03T05:46:56.803Z,10.30
2019-05-03T05:49:44.358Z,10.30
2019-05-03T05:52:15.485Z,10.20
2019-05-03T05:54:48.168Z,10.30
2019-05-03T05:57:36.762Z,10.20
2019-05-03T06:00:15.204Z,10.20
2019-05-03T06:02:44.718Z,10.30
2019-05-03T06:05:14.814Z,10.20
2019-05-03T06:07:54.619Z,10.10
2019-05-03T06:10:29.157Z,10.10
2019-05-03T06:13:19.801Z,10.00
2019-05-03T06:15:54.809Z,10.10
2019-05-03T06:18:30.059Z,10.10
2019-05-03T06:21:10.270Z,10.00
2019-05-03T06:23:45.142Z,10.00
2019-05-03T06:26:31.957Z,10.10
2019-05-03T06:29:04.634Z,10.10
2019-05-03T06:32:02.239Z,10.20
2019-05-03T06:34:30.929Z,10.10
2019-05-03T06:37:04.369Z,10.20
2019-05-03T06:39:35.061Z,10.20
2019-05-03T06:42:05.061Z,10.20
2019-05-03T06:44:34.922Z,10.10
2019-05-03T06:47:08.705Z,10.00
2019-05-03T06:49:34.646Z,10.00
2019-05-03T06:52:05.798Z,10.00
2019-05-03T06:54:35.376Z,10.00
2019-05-03T06:57:09.496Z,10.10
2019-05-03T06:59:57.677Z,10.10
2019-05-03T07:02:35.565Z,10.10
2019-05-03T07:05:06.763Z,10.10
2019-05-03T07:07:49.738Z,10.10
2019-05-03T07:10:30.966Z,10.10
2019-05-03T07:13:04.982Z,10.20
2019-05-03T07:15:35.113Z,10.30
2019-05-03T07:18:05.737Z,10.30
2019-05-03T07:20:49.311Z,10.30
2019-05-03T07:23:18.983Z,10.20
2019-05-03T07:25:47.331Z,10.20
2019-05-03T07:28:15.693Z,10.20
2019-05-03T07:30:46.525Z,10.20
2019-05-03T07:33:22.646Z,10.20
2019-05-03T07:35:51.554Z,10.40
2019-05-03T07:38:20.893Z,10.40
2019-05-03T07:40:50.154Z,10.40
2019-05-03T07:43:19.042Z,10.40
2019-05-03T07:45:47.873Z,10.20
2019-05-03T07:48:16.405Z,10.20
2019-05-03T07:50:44.893Z,10.20
2019-05-03T07:53:15.051Z,10.10
2019-05-03T07:56:06.646Z,10.10
2019-05-03T07:58:35.346Z,10.00
2019-05-03T08:01:09.965Z,10.00
2019-05-03T08:03:39.191Z,10.00
2019-05-03T08:06:08.231Z,10.00
2019-05-03T08:08:36.747Z,10.10
2019-05-03T08:11:05.495Z,10.00
2019-05-03T08:13:35.553Z,10.10
2019-05-03T08:16:05.939Z,10.10
2019-05-03T08:18:35.690Z,10.20
2019-05-03T08:21:08.191Z,10.30
2019-05-03T08:23:40.991Z,10.20
2019-05-03T08:26:15.188Z,10.30
2019-05-03T08:28:47.481Z,10.60
2019-05-03T08:31:37.750Z,10.40
2019-05-03T08:34:18.363Z,10.20
2019-05-03T08:37:07.291Z,10.30
2019-05-03T08:39:37.235Z,10.20
2019-05-03T08:42:14.980Z,10.30
2019-05-03T08:44:45.321Z,10.40
2019-05-03T08:47:17.860Z,10.50
2019-05-03T08:49:50.442Z,10.40
2019-05-03T08:52:24.831Z,10.30
2019-05-03T08:54:54.989Z,10.40
2019-05-03T08:57:27.525Z,10.60
2019-05-03T08:59:58.270Z,10.80
2019-05-03T09:02:26.842Z,10.80
2019-05-03T09:04:56.019Z,10.90
2019-05-03T09:07:25.444Z,10.90
2019-05-03T09:09:59.260Z,10.90
2019-05-03T09:12:48.113Z,11.00
2019-05-03T09:15:16.905Z,10.90
2019-05-03T09:17:45.240Z,11.00
2019-05-03T09:20:15.573Z,11.00
2019-05-03T09:22:45.291Z,11.40
2019-05-03T09:25:16.407Z,11.70
2019-05-03T09:27:45.211Z,11.70
2019-05-03T09:30:14.687Z,11.70
2019-05-03T09:32:45.078Z,11.90
2019-05-03T09:35:29.078Z,12.20
2019-05-03T09:37:45.512Z,12.20
2019-05-03T09:40:15.060Z,12.10
2019-05-03T09:42:44.504Z,12.00
2019-05-03T09:45:15.369Z,12.20
2019-05-03T09:47:44.854Z,12.80
2019-05-03T09:50:15.612Z,14.10
2019-05-03T09:52:46.972Z,15.20
2019-05-03T09:55:20.846Z,16.50
2019-05-03T09:57:49.442Z,16.20
2019-05-03T10:00:19.151Z,16.10
2019-05-03T10:02:47.739Z,16.00
2019-05-03T10:05:16.818Z,15.90
2019-05-03T10:07:45.747Z,15.90
2019-05-03T10:10:15.388Z,16.70
2019-05-03T10:12:44.161Z,17.60
2019-05-03T10:15:17.469Z,18.40
2019-05-03T10:17:59.533Z,18.70
2019-05-03T10:20:28.175Z,18.90
2019-05-03T10:23:02.442Z,19.00
2019-05-03T10:25:32.357Z,18.70
2019-05-03T10:28:02.171Z,18.00
2019-05-03T10:30:35.464Z,18.80
2019-05-03T10:33:12.149Z,19.40
2019-05-03T10:35:45.153Z,18.80
2019-05-03T10:38:15.124Z,19.40
2019-05-03T10:40:45.251Z,20.50
2019-05-03T10:43:14.127Z,20.20
2019-05-03T10:45:44.886Z,18.90
2019-05-03T10:48:15.461Z,18.90
2019-05-03T10:50:43.855Z,19.10
2019-05-03T10:53:34.806Z,18.10
2019-05-03T10:56:32.875Z,17.60
2019-05-03T10:59:03.522Z,18.00
2019-05-03T11:01:45.096Z,17.80
2019-05-03T11:04:14.789Z,17.30
2019-05-03T11:06:45.524Z,17.80
2019-05-03T11:09:15.225Z,18.50
2019-05-03T11:11:45.375Z,19.20
2019-05-03T11:14:14.972Z,19.40
2019-05-03T11:16:45.763Z,19.40
2019-05-03T11:19:14.605Z,19.50
2019-05-03T11:21:45.296Z,19.20
2019-05-03T11:24:14.774Z,19.10
2019-05-03T11:26:45.990Z,19.80
2019-05-03T11:29:15.864Z,20.20
2019-05-03T11:31:55.833Z,20.80
2019-05-03T11:34:30.102Z,20.40
2019-05-03T11:37:25.745Z,21.10
2019-05-03T11:39:55.831Z,21.50
2019-05-03T11:42:24.576Z,21.60
2019-05-03T11:44:53.396Z,21.40
2019-05-03T11:47:24.822Z,20.40
2019-05-03T11:49:54.581Z,20.00
2019-05-03T11:52:22.414Z,19.80
2019-05-03T11:54:50.942Z,18.60
2019-05-03T11:57:26.275Z,18.30
2019-05-03T11:59:55.223Z,18.30
2019-05-03T12:03:01.688Z,17.80
2019-05-03T12:05:30.786Z,17.50
2019-05-03T12:07:59.520Z,18.50
2019-05-03T12:10:48.436Z,18.20
2019-05-03T12:13:05.046Z,17.30
2019-05-03T12:15:35.200Z,17.80
2019-05-03T12:18:07.218Z,18.10
2019-05-03T12:20:39.906Z,18.00
2019-05-03T12:23:10.189Z,17.50
2019-05-03T12:25:40.609Z,17.00
2019-05-03T12:28:11.125Z,16.80
2019-05-03T12:30:39.986Z,16.80
2019-05-03T12:33:08.795Z,17.40
2019-05-03T12:35:38.308Z,18.10
2019-05-03T12:38:08.839Z,18.50
2019-05-03T12:40:37.363Z,18.90
2019-05-03T12:43:06.353Z,19.20
2019-05-03T12:45:35.527Z,18.40
2019-05-03T12:48:05.192Z,17.70
2019-05-03T12:50:34.714Z,17.30
2019-05-03T12:53:04.874Z,16.80
2019-05-03T12:55:35.675Z,16.70
2019-05-03T12:58:06.439Z,16.90
2019-05-03T13:01:04.936Z,17.20
2019-05-03T13:03:55.776Z,17.70
2019-05-03T13:06:25.483Z,17.70
2019-05-03T13:08:54.785Z,18.00
2019-05-03T13:11:25.158Z,18.10
2019-05-03T13:13:55.643Z,18.30
2019-05-03T13:16:24.728Z,18.30
2019-05-03T13:18:55.306Z,18.40
2019-05-03T13:21:25.286Z,18.20
2019-05-03T13:23:54.918Z,17.70
2019-05-03T13:26:25.431Z,17.20
2019-05-03T13:28:55.438Z,16.70
2019-05-03T13:31:25.066Z,16.70
2019-05-03T13:33:54.950Z,17.10
2019-05-03T13:36:25.375Z,17.40
2019-05-03T13:39:11.525Z,17.90
2019-05-03T13:41:26.760Z,18.40
2019-05-03T13:43:55.313Z,17.70
2019-05-03T13:46:24.666Z,16.90
2019-05-03T13:48:55.307Z,16.40
2019-05-03T13:51:25.349Z,16.60
2019-05-03T13:53:55.113Z,16.70
2019-05-03T13:56:24.679Z,16.60
2019-05-03T13:58:55.035Z,16.70
2019-05-03T14:01:25.177Z,16.60
2019-05-03T14:03:54.585Z,16.60
2019-05-03T14:06:24.564Z,17.20
2019-05-03T14:08:54.816Z,17.80
2019-05-03T14:11:25.355Z,18.40
2019-05-03T14:13:55.199Z,18.80
2019-05-03T14:16:24.032Z,18.70
2019-05-03T14:18:56.362Z,18.10
2019-05-03T14:21:35.339Z,17.40
2019-05-03T14:24:09.256Z,17.00
2019-05-03T14:26:38.899Z,16.50
2019-05-03T14:29:08.398Z,16.90
2019-05-03T14:31:37.769Z,17.10
2019-05-03T14:34:06.682Z,16.90
2019-05-03T14:36:36.444Z,17.00
2019-05-03T14:39:10.222Z,17.00
2019-05-03T14:41:39.151Z,17.00
2019-05-03T14:44:07.632Z,17.00
2019-05-03T14:46:36.392Z,17.10
2019-05-03T14:49:05.755Z,17.30
2019-05-03T14:51:35.001Z,17.40
2019-05-03T14:54:05.635Z,17.40
2019-05-03T14:56:45.948Z,17.40
2019-05-03T14:59:22.950Z,17.00
2019-05-03T15:02:01.699Z,16.50
2019-05-03T15:04:30.086Z,16.20
2019-05-03T15:06:58.838Z,16.30
2019-05-03T15:09:27.429Z,16.20
2019-05-03T15:11:56.179Z,16.00
2019-05-03T15:14:25.165Z,16.00
2019-05-03T15:16:55.609Z,15.90
2019-05-03T15:19:25.354Z,16.20
2019-05-03T15:21:54.767Z,16.60
2019-05-03T15:24:25.222Z,16.70
2019-05-03T15:26:55.387Z,16.60
2019-05-03T15:29:25.842Z,16.60
2019-05-03T15:31:55.241Z,16.60
2019-05-03T15:34:23.832Z,16.40
2019-05-03T15:36:54.696Z,16.50
2019-05-03T15:39:25.564Z,16.80
2019-05-03T15:41:54.452Z,17.30
2019-05-03T15:44:41.076Z,17.20
2019-05-03T15:47:17.420Z,17.00
2019-05-03T15:49:46.053Z,16.90
2019-05-03T15:52:15.273Z,16.80
2019-05-03T15:54:44.541Z,16.80
2019-05-03T15:57:14.448Z,16.50
2019-05-03T15:59:44.496Z,16.30
2019-05-03T16:02:15.197Z,16.30
2019-05-03T16:04:44.856Z,16.00
2019-05-03T16:07:14.423Z,15.90
2019-05-03T16:09:44.496Z,15.50
2019-05-03T16:12:14.510Z,15.40
2019-05-03T16:14:44.547Z,15.30
2019-05-03T16:17:14.726Z,15.30
2019-05-03T16:19:47.378Z,15.40
2019-05-03T16:22:14.463Z,15.30
2019-05-03T16:24:44.784Z,15.50
2019-05-03T16:27:47.922Z,15.50
2019-05-03T16:30:56.065Z,15.60
2019-05-03T16:33:28.024Z,15.50
2019-05-03T16:35:55.033Z,15.40
2019-05-03T16:38:24.850Z,15.00
2019-05-03T16:40:55.364Z,14.80
2019-05-03T16:43:25.680Z,14.70
2019-05-03T16:45:55.227Z,14.90
2019-05-03T16:48:24.726Z,14.80
2019-05-03T16:50:53.482Z,14.80
2019-05-03T16:53:21.826Z,14.60
2019-05-03T16:55:50.257Z,14.60
2019-05-03T16:58:18.924Z,14.60
2019-05-03T17:00:47.661Z,14.80
2019-05-03T17:03:20.626Z,14.70
2019-05-03T17:06:07.164Z,14.70
2019-05-03T17:08:45.238Z,14.70
2019-05-03T17:11:15.883Z,14.50
2019-05-03T17:13:47.607Z,14.50
2019-05-03T17:16:15.098Z,14.50
2019-05-03T17:18:44.641Z,14.60
2019-05-03T17:21:16.011Z,14.70
2019-05-03T17:23:44.659Z,14.50
2019-05-03T17:26:14.978Z,14.30
2019-05-03T17:28:44.843Z,14.20
2019-05-03T17:31:15.214Z,14.20
2019-05-03T17:33:52.325Z,14.00
2019-05-03T17:36:15.317Z,14.00
2019-05-03T17:38:46.407Z,13.90
2019-05-03T17:41:39.309Z,13.80
2019-05-03T17:44:14.418Z,13.90
2019-05-03T17:46:42.999Z,13.90
2019-05-03T17:49:12.196Z,14.00
2019-05-03T17:51:52.949Z,13.90
2019-05-03T17:54:58.373Z,13.90
2019-05-03T17:57:44.573Z,14.00
2019-05-03T18:00:34.958Z,13.90
2019-05-03T18:03:05.892Z,13.90
2019-05-03T18:05:40.447Z,13.80
2019-05-03T18:08:29.076Z,13.80
2019-05-03T18:11:19.802Z,13.80
2019-05-03T18:13:49.230Z,13.80
2019-05-03T18:16:21.365Z,13.80
2019-05-03T18:18:49.752Z,13.70
2019-05-03T18:21:18.705Z,13.70
2019-05-03T18:23:47.418Z,13.60
2019-05-03T18:26:15.951Z,13.60
2019-05-03T18:28:44.768Z,13.50
2019-05-03T18:31:14.630Z,13.50
2019-05-03T18:33:44.324Z,13.60
2019-05-03T18:36:14.748Z,13.50
2019-05-03T18:38:44.621Z,13.50
2019-05-03T18:41:13.985Z,13.30
2019-05-03T18:44:02.560Z,13.30
2019-05-03T18:46:34.823Z,13.20
2019-05-03T18:49:04.506Z,13.20
2019-05-03T18:51:34.368Z,13.20
2019-05-03T18:54:05.401Z,13.00
2019-05-03T18:56:34.682Z,13.10
2019-05-03T18:59:05.162Z,13.30
2019-05-03T19:01:34.743Z,13.30
2019-05-03T19:04:34.121Z,13.40
2019-05-03T19:07:04.288Z,13.30
2019-05-03T19:09:43.757Z,13.20
2019-05-03T19:12:31.881Z,13.20
2019-05-03T19:15:01.057Z,13.20
2019-05-03T19:17:51.684Z,13.10
2019-05-03T19:20:20.286Z,13.10
2019-05-03T19:22:48.849Z,13.10
2019-05-03T19:25:17.629Z,13.00
2019-05-03T19:27:46.227Z,13.00
2019-05-03T19:30:16.459Z,12.90
2019-05-03T19:32:45.459Z,12.90
2019-05-03T19:35:15.710Z,12.80
2019-05-03T19:37:46.557Z,12.80
2019-05-03T19:40:14.761Z,12.70
2019-05-03T19:42:44.735Z,12.70
2019-05-03T19:45:15.363Z,12.70
2019-05-03T19:47:44.772Z,12.70
2019-05-03T19:50:15.521Z,12.60
2019-05-03T19:53:16.082Z,12.50
2019-05-03T19:55:50.182Z,12.40
2019-05-03T19:58:15.629Z,12.30
2019-05-03T20:01:00.391Z,12.30
2019-05-03T20:03:45.697Z,12.20
2019-05-03T20:06:26.812Z,12.20
2019-05-03T20:08:59.167Z,12.10
2019-05-03T20:11:37.734Z,12.10
2019-05-03T20:14:06.449Z,12.10
2019-05-03T20:16:35.174Z,12.10
2019-05-03T20:19:17.247Z,12.10
2019-05-03T20:21:35.278Z,12.00
2019-05-03T20:24:05.590Z,12.00
2019-05-03T20:26:35.364Z,11.90
2019-05-03T20:29:05.011Z,11.90
2019-05-03T20:31:35.199Z,11.90
2019-05-03T20:34:05.372Z,11.90
2019-05-03T20:36:35.088Z,11.80
2019-05-03T20:39:05.509Z,11.70
2019-05-03T20:41:35.516Z,11.80
2019-05-03T20:44:19.714Z,11.70
2019-05-03T20:47:01.120Z,11.60
2019-05-03T20:49:29.513Z,11.40
2019-05-03T20:51:57.883Z,11.50
2019-05-03T20:54:26.873Z,11.50
2019-05-03T20:56:55.880Z,11.50
2019-05-03T20:59:25.309Z,11.50
2019-05-03T21:01:54.626Z,11.50
2019-05-03T21:04:24.715Z,11.50
2019-05-03T21:06:55.208Z,11.30
2019-05-03T21:09:23.884Z,11.30
2019-05-03T21:11:52.576Z,11.20
2019-05-03T21:14:21.254Z,11.20
2019-05-03T21:17:05.644Z,11.30
2019-05-03T21:19:51.878Z,11.30
2019-05-03T21:22:24.939Z,11.30
2019-05-03T21:25:09.413Z,11.20
2019-05-03T21:27:38.208Z,11.20
2019-05-03T21:30:07.353Z,11.00
2019-05-03T21:32:35.909Z,10.80
2019-05-03T21:35:05.430Z,10.60
2019-05-03T21:37:35.409Z,10.40
2019-05-03T21:40:05.234Z,10.00
2019-05-03T21:42:35.086Z,9.90
2019-05-03T21:45:05.243Z,9.90
2019-05-03T21:47:55.030Z,9.80
2019-05-03T21:50:24.956Z,9.70
2019-05-03T21:52:57.620Z,9.70
2019-05-03T21:55:26.243Z,9.80
2019-05-03T21:57:55.336Z,9.80
2019-05-03T22:00:26.723Z,9.80
2019-05-03T22:02:56.740Z,9.80
2019-05-03T22:05:26.485Z,9.80
2019-05-03T22:07:55.758Z,9.70
2019-05-03T22:10:25.562Z,9.70
2019-05-03T22:12:54.548Z,9.80
2019-05-03T22:15:37.014Z,9.80
2019-05-03T22:18:20.459Z,9.80
2019-05-03T22:20:55.842Z,9.80
2019-05-03T22:23:59.080Z,9.80
2019-05-03T22:26:45.860Z,9.70
2019-05-03T22:29:17.245Z,9.70
2019-05-03T22:31:45.878Z,9.70
2019-05-03T22:34:15.206Z,9.70
2019-05-03T22:36:44.524Z,9.60
2019-05-03T22:39:15.780Z,9.60
2019-05-03T22:41:44.490Z,9.60
2019-05-03T22:44:17.083Z,9.60
2019-05-03T22:46:46.561Z,9.60
2019-05-03T22:49:17.250Z,9.60
2019-05-03T22:51:46.125Z,9.50
2019-05-03T22:54:15.371Z,9.50
2019-05-03T22:56:44.802Z,9.50
2019-05-03T22:59:14.755Z,9.40
2019-05-03T23:01:45.502Z,9.30
2019-05-03T23:04:14.673Z,9.30
2019-05-03T23:06:46.833Z,9.30
2019-05-03T23:09:15.891Z,9.20
2019-05-03T23:11:45.113Z,9.10
2019-05-03T23:14:15.097Z,9.00
2019-05-03T23:16:44.819Z,8.80
2019-05-03T23:19:14.990Z,8.70
2019-05-03T23:21:54.467Z,8.60
2019-05-03T23:24:24.674Z,8.60
2019-05-03T23:26:53.584Z,8.50
2019-05-03T23:29:22.284Z,8.40
2019-05-03T23:31:51.254Z,8.40
2019-05-03T23:34:19.978Z,8.40
2019-05-03T23:36:48.624Z,8.40
2019-05-03T23:39:17.645Z,8.40
2019-05-03T23:41:45.985Z,8.40
2019-05-03T23:44:15.170Z,8.50
2019-05-03T23:46:54.630Z,8.50
2019-05-03T23:49:25.272Z,8.60
2019-05-03T23:51:56.462Z,8.60
2019-05-03T23:54:25.120Z,8.60
2019-05-03T23:56:54.722Z,8.60
2019-05-03T23:59:23.724Z,8.60
